createdAt,value
2023-02-27T00:01:45.668Z,101817.69
2023-02-27T00:04:14.042Z,101813.34
2023-02-27T00:06:41.849Z,101813.47
2023-02-27T00:09:11.005Z,101817.81
2023-02-27T00:11:38.916Z,101806.72
2023-02-27T00:14:06.791Z,101808.50
2023-02-27T00:16:34.758Z,101810.03
2023-02-27T00:19:04.734Z,101811.41
2023-02-27T00:21:33.874Z,101809.78
2023-02-27T00:24:03.898Z,101819.22
2023-02-27T00:26:33.044Z,101816.16
2023-02-27T00:29:00.859Z,101813.34
2023-02-27T00:31:29.077Z,101813.97
2023-02-27T00:33:57.294Z,101823.53
2023-02-27T00:36:25.727Z,101816.66
2023-02-27T00:38:53.674Z,101814.88
2023-02-27T00:41:21.817Z,101816.09
2023-02-27T00:43:51.119Z,101816.59
2023-02-27T00:46:19.726Z,101816.31
2023-02-27T00:48:47.660Z,101821.97
2023-02-27T00:51:15.532Z,101820.66
2023-02-27T00:53:43.368Z,101814.38
2023-02-27T00:56:13.253Z,101815.03
2023-02-27T00:58:41.096Z,101819.63
2023-02-27T01:01:11.534Z,101821.03
2023-02-27T01:03:39.393Z,101812.75
2023-02-27T01:06:08.183Z,101819.34
2023-02-27T01:08:36.016Z,101823.94
2023-02-27T01:11:06.246Z,101817.53
2023-02-27T01:13:34.112Z,101824.91
2023-02-27T01:16:02.000Z,101817.72
2023-02-27T01:18:31.611Z,101816.69
2023-02-27T01:20:59.447Z,101807.25
2023-02-27T01:23:27.433Z,101813.88
2023-02-27T01:25:55.351Z,101810.59
2023-02-27T01:28:23.223Z,101806.72
2023-02-27T01:30:51.286Z,101799.72
2023-02-27T01:33:19.232Z,101808.59
2023-02-27T01:35:48.706Z,101812.03
2023-02-27T01:38:16.675Z,101810.72
2023-02-27T01:40:44.970Z,101807.63
2023-02-27T01:43:19.647Z,101808.25
2023-02-27T01:45:49.123Z,101801.22
2023-02-27T01:48:21.708Z,101800.97
2023-02-27T01:50:58.372Z,101801.22
2023-02-27T01:53:30.519Z,101791.66
2023-02-27T01:56:05.228Z,101795.88
2023-02-27T01:58:33.998Z,101799.19
2023-02-27T02:01:03.157Z,101805.00
2023-02-27T02:03:40.997Z,101802.19
2023-02-27T02:06:12.282Z,101799.25
2023-02-27T02:08:45.562Z,101800.41
2023-02-27T02:11:16.572Z,101805.16
2023-02-27T02:13:49.966Z,101802.63
2023-02-27T02:16:46.461Z,101801.47
2023-02-27T02:19:59.419Z,101812.66
2023-02-27T02:23:31.075Z,101810.59
2023-02-27T02:26:33.241Z,101808.22
2023-02-27T02:29:55.840Z,101809.38
2023-02-27T02:33:35.834Z,101808.47
2023-02-27T02:36:55.347Z,101817.34
2023-02-27T02:39:56.993Z,101812.59
2023-02-27T02:42:36.480Z,101818.16
2023-02-27T02:45:21.477Z,101822.25
2023-02-27T02:48:04.713Z,101817.00
2023-02-27T02:50:41.606Z,101804.13
2023-02-27T02:53:18.156Z,101804.44
2023-02-27T02:55:57.285Z,101799.59
2023-02-27T02:58:32.343Z,101804.69
2023-02-27T03:01:10.651Z,101805.94
2023-02-27T03:03:46.804Z,101813.69
2023-02-27T03:06:22.200Z,101806.97
2023-02-27T03:08:56.357Z,101811.91
2023-02-27T03:11:33.080Z,101820.44
2023-02-27T03:14:11.431Z,101818.16
2023-02-27T03:16:45.400Z,101817.91
2023-02-27T03:19:21.155Z,101823.31
2023-02-27T03:21:55.336Z,101816.13
2023-02-27T03:24:30.192Z,101821.22
2023-02-27T03:27:05.398Z,101829.75
2023-02-27T03:29:44.721Z,101824.22
2023-02-27T03:32:21.763Z,101830.84
2023-02-27T03:34:50.419Z,101820.66
2023-02-27T03:37:30.798Z,101822.44
2023-02-27T03:40:10.823Z,101827.25
2023-02-27T03:42:49.220Z,101828.75
2023-02-27T03:45:40.597Z,101824.28
2023-02-27T03:48:09.292Z,101832.69
2023-02-27T03:50:38.427Z,101840.16
2023-02-27T03:53:21.366Z,101837.50
2023-02-27T03:55:53.526Z,101842.44
2023-02-27T03:58:23.316Z,101854.88
2023-02-27T04:00:51.680Z,101842.94
2023-02-27T04:03:20.988Z,101842.94
2023-02-27T04:05:50.741Z,101848.47
2023-02-27T04:08:42.336Z,101845.94
2023-02-27T04:11:34.085Z,101859.41
2023-02-27T04:14:30.655Z,101851.03
2023-02-27T04:17:21.550Z,101861.47
2023-02-27T04:20:27.960Z,101867.34
2023-02-27T04:23:03.966Z,101872.44
2023-02-27T04:25:59.787Z,101871.25
2023-02-27T04:28:43.229Z,101874.69
2023-02-27T04:31:20.493Z,101881.28
2023-02-27T04:33:57.260Z,101877.69
2023-02-27T04:36:32.724Z,101873.81
2023-02-27T04:39:08.284Z,101871.16
2023-02-27T04:41:46.727Z,101872.31
2023-02-27T04:44:18.487Z,101872.03
2023-02-27T04:46:50.420Z,101870.38
2023-02-27T04:49:25.095Z,101868.72
2023-02-27T04:52:00.232Z,101868.72
2023-02-27T04:54:36.125Z,101876.53
2023-02-27T04:57:09.464Z,101870.25
2023-02-27T04:59:45.235Z,101876.84
2023-02-27T05:02:24.656Z,101879.06
2023-02-27T05:05:00.399Z,101886.38
2023-02-27T05:07:36.166Z,101891.47
2023-02-27T05:10:08.229Z,101884.59
2023-02-27T05:12:45.294Z,101890.56
2023-02-27T05:15:20.653Z,101895.50
2023-02-27T05:18:00.663Z,101890.56
2023-02-27T05:20:40.666Z,101898.81
2023-02-27T05:23:16.908Z,101899.00
2023-02-27T05:25:54.693Z,101907.38
2023-02-27T05:31:25.799Z,101912.94
2023-02-27T05:34:08.295Z,101909.50
2023-02-27T05:36:43.623Z,101907.72
2023-02-27T05:39:14.699Z,101908.59
2023-02-27T05:41:50.711Z,101917.28
2023-02-27T05:44:23.240Z,101916.97
2023-02-27T05:46:58.681Z,101912.19
2023-02-27T05:49:34.374Z,101914.88
2023-02-27T05:52:07.754Z,101913.97
2023-02-27T05:54:44.901Z,101908.88
2023-02-27T05:57:20.122Z,101914.53
2023-02-27T05:59:56.383Z,101916.81
2023-02-27T06:02:24.751Z,101913.31
2023-02-27T06:04:55.329Z,101913.31
2023-02-27T06:07:23.495Z,101917.41
2023-02-27T06:09:51.909Z,101924.72
2023-02-27T06:12:19.666Z,101920.41
2023-02-27T06:14:47.520Z,101925.03
2023-02-27T06:17:15.382Z,101927.28
2023-02-27T06:19:43.166Z,101936.44
2023-02-27T06:22:12.409Z,101929.25
2023-02-27T06:24:40.228Z,101931.94
2023-02-27T06:27:08.062Z,101935.22
2023-02-27T06:29:35.988Z,101946.63
2023-02-27T06:32:03.884Z,101940.00
2023-02-27T06:34:31.758Z,101939.72
2023-02-27T06:36:59.617Z,101941.97
2023-02-27T06:39:28.789Z,101940.47
2023-02-27T06:41:56.953Z,101941.25
2023-02-27T06:44:24.813Z,101938.22
2023-02-27T06:46:52.616Z,101945.81
2023-02-27T06:49:20.818Z,101942.38
2023-02-27T06:51:48.743Z,101951.06
2023-02-27T06:54:16.588Z,101947.59
2023-02-27T06:56:46.113Z,101953.41
2023-02-27T06:59:14.339Z,101959.44
2023-02-27T07:01:42.115Z,101963.91
2023-02-27T07:04:14.595Z,101959.94
2023-02-27T07:07:35.793Z,101967.59
2023-02-27T07:09:31.306Z,101972.19
2023-02-27T07:12:01.644Z,101971.84
2023-02-27T07:14:29.739Z,101969.09
2023-02-27T07:16:57.531Z,101975.41
2023-02-27T07:19:25.860Z,101974.75
2023-02-27T07:21:53.691Z,101975.94
2023-02-27T07:24:21.445Z,101982.22
2023-02-27T07:26:49.320Z,101980.09
2023-02-27T07:29:18.740Z,101971.63
2023-02-27T07:31:46.613Z,101977.84
2023-02-27T07:34:15.693Z,101975.09
2023-02-27T07:36:44.228Z,101979.22
2023-02-27T07:39:13.374Z,101974.91
2023-02-27T07:41:41.237Z,101977.00
2023-02-27T07:44:11.952Z,101983.50
2023-02-27T07:46:41.191Z,101985.75
2023-02-27T07:49:10.436Z,101979.25
2023-02-27T07:51:38.453Z,101980.72
2023-02-27T07:54:06.230Z,101987.41
2023-02-27T07:56:34.330Z,101987.47
2023-02-27T07:59:02.328Z,101981.13
2023-02-27T08:01:30.395Z,101988.50
2023-02-27T08:03:59.593Z,101990.06
2023-02-27T08:06:27.711Z,101992.13
2023-02-27T08:08:55.910Z,101987.50
2023-02-27T08:11:23.869Z,101987.47
2023-02-27T08:14:00.989Z,101995.13
2023-02-27T08:16:31.725Z,101991.75
2023-02-27T08:19:01.745Z,101989.66
2023-02-27T08:21:30.361Z,101989.16
2023-02-27T08:23:58.729Z,101990.19
2023-02-27T08:26:26.890Z,101986.75
2023-02-27T08:28:54.934Z,101985.16
2023-02-27T08:31:23.486Z,101985.66
2023-02-27T08:34:04.277Z,101982.84
2023-02-27T08:36:38.861Z,101981.66
2023-02-27T08:39:07.729Z,101981.91
2023-02-27T08:41:36.521Z,101987.59
2023-02-27T08:44:05.226Z,101988.38
2023-02-27T08:46:33.090Z,101990.41
2023-02-27T08:49:00.896Z,101994.78
2023-02-27T08:51:29.243Z,101983.69
2023-02-27T08:54:01.751Z,101984.94
2023-02-27T08:56:30.088Z,101992.06
2023-02-27T08:58:57.956Z,101988.97
2023-02-27T09:01:28.587Z,101999.03
2023-02-27T09:03:56.767Z,101992.06
2023-02-27T09:06:26.380Z,101983.63
2023-02-27T09:08:54.753Z,101990.50
2023-02-27T09:11:25.679Z,101994.66
2023-02-27T09:13:55.136Z,102003.56
2023-02-27T09:16:23.767Z,101993.69
2023-02-27T09:18:51.684Z,101990.84
2023-02-27T09:21:20.529Z,101988.69
2023-02-27T09:23:48.350Z,101980.16
2023-02-27T09:26:17.149Z,101986.84
2023-02-27T09:28:46.320Z,101998.75
2023-02-27T09:31:14.257Z,101995.47
2023-02-27T09:33:42.056Z,101994.50
2023-02-27T09:36:10.758Z,101990.09
2023-02-27T09:38:41.203Z,101990.66
2023-02-27T09:41:39.305Z,101993.31
2023-02-27T09:44:36.367Z,101992.47
2023-02-27T09:47:17.599Z,101984.25
2023-02-27T09:49:59.181Z,101977.69
2023-02-27T09:52:29.851Z,101976.13
2023-02-27T09:54:57.956Z,101979.22
2023-02-27T09:57:43.815Z,101996.00
2023-02-27T10:00:35.041Z,101976.63
2023-02-27T10:03:24.519Z,101979.22
2023-02-27T10:06:15.332Z,101975.19
2023-02-27T10:08:55.662Z,101978.09
2023-02-27T10:11:43.467Z,101982.09
2023-02-27T10:14:38.790Z,101983.22
2023-02-27T10:17:20.670Z,101982.72
2023-02-27T10:19:51.355Z,101977.47
2023-02-27T10:22:26.388Z,101978.78
2023-02-27T10:25:02.708Z,101972.38
2023-02-27T10:27:32.385Z,101973.50
2023-02-27T10:30:29.220Z,101970.13
2023-02-27T10:33:09.849Z,101973.09
2023-02-27T10:35:42.324Z,101965.94
2023-02-27T10:38:16.654Z,101970.38
2023-02-27T10:40:47.671Z,101966.97
2023-02-27T10:43:19.250Z,101976.31
2023-02-27T10:45:47.309Z,101973.91
2023-02-27T10:48:18.312Z,101981.81
2023-02-27T10:50:52.013Z,101974.88
2023-02-27T10:53:23.174Z,101969.81
2023-02-27T10:56:02.041Z,101974.28
2023-02-27T10:58:34.672Z,101970.84
2023-02-27T11:01:06.529Z,101966.38
2023-02-27T11:03:41.346Z,101956.09
2023-02-27T11:06:20.794Z,101958.69
2023-02-27T11:09:12.769Z,101956.63
2023-02-27T11:11:40.646Z,101963.53
2023-02-27T11:14:27.898Z,101952.78
2023-02-27T11:16:58.396Z,101949.94
2023-02-27T11:19:33.859Z,101950.53
2023-02-27T11:22:05.920Z,101940.94
2023-02-27T11:24:34.566Z,101941.94
2023-02-27T11:27:17.760Z,101939.31
2023-02-27T11:29:58.234Z,101935.06
2023-02-27T11:32:35.701Z,101935.13
2023-02-27T11:35:19.377Z,101929.66
2023-02-27T11:37:50.957Z,101933.00
2023-02-27T11:40:23.113Z,101937.22
2023-02-27T11:42:55.371Z,101928.63
2023-02-27T11:46:05.177Z,101932.84
2023-02-27T11:48:25.508Z,101929.31
2023-02-27T11:51:28.689Z,101933.19
2023-02-27T11:54:13.384Z,101931.63
2023-02-27T11:56:47.151Z,101928.88
2023-02-27T11:59:32.192Z,101931.63
2023-02-27T12:02:11.583Z,101919.16
2023-02-27T12:04:50.105Z,101928.09
2023-02-27T12:07:26.282Z,101924.75
2023-02-27T12:10:04.690Z,101925.00
2023-02-27T12:12:45.581Z,101929.34
2023-02-27T12:15:25.837Z,101924.63
2023-02-27T12:18:05.290Z,101923.94
2023-02-27T12:20:41.520Z,101925.31
2023-02-27T12:23:21.097Z,101915.81
2023-02-27T12:25:53.915Z,101918.72
2023-02-27T12:28:35.254Z,101916.47
2023-02-27T12:31:28.172Z,101910.53
2023-02-27T12:34:07.050Z,101911.50
2023-02-27T12:36:35.086Z,101915.38
2023-02-27T12:39:04.880Z,101905.91
2023-02-27T12:41:44.901Z,101920.34
2023-02-27T12:44:37.208Z,101915.31
2023-02-27T12:47:25.624Z,101905.81
2023-02-27T12:50:03.905Z,101908.97
2023-02-27T12:52:57.248Z,101907.28
2023-02-27T12:55:30.934Z,101905.38
2023-02-27T12:58:20.913Z,101890.06
2023-02-27T13:00:59.713Z,101884.13
2023-02-27T13:03:37.479Z,101893.88
2023-02-27T13:06:20.018Z,101884.16
2023-02-27T13:09:11.699Z,101885.50
2023-02-27T13:11:56.273Z,101899.97
2023-02-27T13:14:43.477Z,101900.97
2023-02-27T13:17:22.473Z,101892.38
2023-02-27T13:19:55.442Z,101886.06
2023-02-27T13:22:38.056Z,101883.53
2023-02-27T13:25:14.325Z,101893.44
2023-02-27T13:27:48.735Z,101897.38
2023-02-27T13:30:26.367Z,101900.41
2023-02-27T13:33:07.370Z,101892.63
2023-02-27T13:35:53.247Z,101896.47
2023-02-27T13:38:45.119Z,101891.09
2023-02-27T13:41:38.483Z,101898.94
2023-02-27T13:44:43.604Z,101899.91
2023-02-27T13:47:41.735Z,101904.84
2023-02-27T13:50:50.360Z,101897.81
2023-02-27T13:53:21.529Z,101894.13
2023-02-27T13:55:53.591Z,101899.19
2023-02-27T13:58:24.795Z,101904.91
2023-02-27T14:01:01.469Z,101899.16
2023-02-27T14:03:32.104Z,101889.22
2023-02-27T14:06:06.221Z,101904.19
2023-02-27T14:08:48.558Z,101897.78
2023-02-27T14:11:23.495Z,101897.44
2023-02-27T14:14:06.432Z,101883.09
2023-02-27T14:16:56.865Z,101881.78
2023-02-27T14:19:56.636Z,101879.41
2023-02-27T14:22:40.918Z,101870.38
2023-02-27T14:25:22.008Z,101863.03
2023-02-27T14:27:57.067Z,101869.09
2023-02-27T14:30:41.975Z,101854.81
2023-02-27T14:33:37.684Z,101865.84
2023-02-27T14:36:14.913Z,101863.75
2023-02-27T14:38:43.218Z,101867.34
2023-02-27T14:41:29.067Z,101874.59
2023-02-27T14:43:58.719Z,101883.72
2023-02-27T14:46:32.151Z,101887.56
2023-02-27T14:49:05.106Z,101892.06
2023-02-27T14:51:37.296Z,101888.78
2023-02-27T14:54:13.051Z,101887.47
2023-02-27T14:56:52.687Z,101883.44
2023-02-27T14:59:26.653Z,101873.09
2023-02-27T15:01:58.340Z,101878.59
2023-02-27T15:04:30.975Z,101880.56
2023-02-27T15:07:01.287Z,101886.78
2023-02-27T15:09:38.359Z,101886.19
2023-02-27T15:12:07.056Z,101894.94
2023-02-27T15:14:39.018Z,101884.66
2023-02-27T15:17:17.854Z,101882.47
2023-02-27T15:19:51.268Z,101890.84
2023-02-27T15:22:37.645Z,101892.47
2023-02-27T15:25:07.898Z,101888.41
2023-02-27T15:27:39.651Z,101890.66
2023-02-27T15:30:21.468Z,101891.72
2023-02-27T15:32:50.100Z,101893.44
2023-02-27T15:35:24.233Z,101892.31
2023-02-27T15:37:56.763Z,101897.94
2023-02-27T15:40:28.850Z,101907.78
2023-02-27T15:42:59.282Z,101909.66
2023-02-27T15:45:32.882Z,101911.41
2023-02-27T15:48:01.210Z,101911.00
2023-02-27T15:50:36.758Z,101914.34
2023-02-27T15:53:12.654Z,101906.81
2023-02-27T15:55:44.756Z,101904.28
2023-02-27T15:58:24.517Z,101905.19
2023-02-27T16:01:01.005Z,101909.47
2023-02-27T16:03:37.009Z,101906.56
2023-02-27T16:06:12.702Z,101909.03
2023-02-27T16:08:45.735Z,101916.16
2023-02-27T16:11:19.263Z,101911.97
2023-02-27T16:13:48.042Z,101914.97
2023-02-27T16:16:28.408Z,101905.97
2023-02-27T16:18:59.738Z,101915.75
2023-02-27T16:21:33.750Z,101917.53
2023-02-27T16:24:20.493Z,101920.59
2023-02-27T16:26:53.108Z,101929.94
2023-02-27T16:29:25.260Z,101933.22
2023-02-27T16:31:56.581Z,101943.06
2023-02-27T16:34:44.546Z,101951.69
2023-02-27T16:37:21.838Z,101946.03
2023-02-27T16:39:51.975Z,101945.53
2023-02-27T16:42:21.352Z,101949.06
2023-02-27T16:44:49.074Z,101946.91
2023-02-27T16:47:16.839Z,101944.09
2023-02-27T16:49:46.360Z,101937.16
2023-02-27T16:52:14.408Z,101944.09
2023-02-27T16:54:43.730Z,101945.91
2023-02-27T16:57:11.804Z,101954.50
2023-02-27T16:59:41.133Z,101945.38
2023-02-27T17:02:13.467Z,101949.50
2023-02-27T17:04:44.293Z,101952.63
2023-02-27T17:07:18.215Z,101952.22
2023-02-27T17:09:48.404Z,101952.56
2023-02-27T17:12:16.334Z,101961.06
2023-02-27T17:14:44.068Z,101957.88
2023-02-27T17:17:11.879Z,101961.00
2023-02-27T17:19:39.669Z,101956.22
2023-02-27T17:22:07.531Z,101959.44
2023-02-27T17:24:36.354Z,101960.44
2023-02-27T17:27:05.756Z,101959.44
2023-02-27T17:29:33.630Z,101962.00
2023-02-27T17:32:01.780Z,101963.91
2023-02-27T17:34:29.698Z,101969.50
2023-02-27T17:36:57.651Z,101971.09
2023-02-27T17:39:25.650Z,101975.97
2023-02-27T17:41:54.401Z,101972.22
2023-02-27T17:44:23.905Z,101970.19
2023-02-27T17:46:52.059Z,101964.63
2023-02-27T17:49:19.952Z,101978.47
2023-02-27T17:51:47.669Z,101982.47
2023-02-27T17:54:15.745Z,101983.16
2023-02-27T17:56:43.832Z,101980.00
2023-02-27T17:59:11.733Z,101984.50
2023-02-27T18:01:40.949Z,101980.47
2023-02-27T18:04:11.317Z,101981.03
2023-02-27T18:06:39.348Z,101982.00
2023-02-27T18:09:07.213Z,101986.91
2023-02-27T18:11:36.339Z,101983.59
2023-02-27T18:14:04.329Z,101994.72
2023-02-27T18:16:32.743Z,101994.25
2023-02-27T18:19:04.548Z,102000.28
2023-02-27T18:21:33.924Z,101992.78
2023-02-27T18:24:02.413Z,101997.47
2023-02-27T18:26:33.060Z,101990.84
2023-02-27T18:29:04.759Z,101990.25
2023-02-27T18:31:39.251Z,101991.94
2023-02-27T18:34:09.487Z,102003.03
2023-02-27T18:36:38.947Z,102003.91
2023-02-27T18:39:06.948Z,101999.19
2023-02-27T18:41:35.291Z,102006.75
2023-02-27T18:44:03.653Z,102011.41
2023-02-27T18:46:32.916Z,102002.28
2023-02-27T18:49:01.421Z,102014.75
2023-02-27T18:51:30.619Z,102008.09
2023-02-27T18:54:00.709Z,102016.28
2023-02-27T18:56:30.902Z,102012.69
2023-02-27T18:59:05.057Z,102019.13
2023-02-27T19:01:37.148Z,102019.69
2023-02-27T19:04:07.723Z,102018.19
2023-02-27T19:06:40.834Z,102014.13
2023-02-27T19:09:17.918Z,102013.88
2023-02-27T19:11:48.157Z,102016.59
2023-02-27T19:14:16.552Z,102011.41
2023-02-27T19:16:46.040Z,102012.47
2023-02-27T19:19:13.872Z,102014.50
2023-02-27T19:21:43.569Z,102018.63
2023-02-27T19:24:13.219Z,102019.13
2023-02-27T19:26:41.244Z,102020.81
2023-02-27T19:29:09.271Z,102026.56
2023-02-27T19:31:37.171Z,102020.41
2023-02-27T19:34:05.333Z,102025.06
2023-02-27T19:36:34.697Z,102023.53
2023-02-27T19:39:04.416Z,102019.28
2023-02-27T19:41:33.611Z,102017.63
2023-02-27T19:44:01.772Z,102015.06
2023-02-27T19:46:35.995Z,102018.41
2023-02-27T19:49:05.893Z,102012.50
2023-02-27T19:51:34.457Z,102012.41
2023-02-27T19:54:03.853Z,102014.56
2023-02-27T19:56:32.271Z,102015.44
2023-02-27T19:59:01.215Z,102013.16
2023-02-27T20:01:31.559Z,102007.16
2023-02-27T20:04:01.173Z,102014.56
2023-02-27T20:06:32.156Z,102018.41
2023-02-27T20:09:00.645Z,102018.41
2023-02-27T20:11:31.752Z,102021.75
2023-02-27T20:14:00.051Z,102015.09
2023-02-27T20:16:30.659Z,102021.75
2023-02-27T20:18:58.786Z,102025.09
2023-02-27T20:21:28.355Z,102025.72
2023-02-27T20:23:58.302Z,102027.00
2023-02-27T20:26:31.894Z,102023.81
2023-02-27T20:29:02.986Z,102027.16
2023-02-27T20:31:34.395Z,102025.34
2023-02-27T20:34:06.039Z,102027.66
2023-02-27T20:36:35.537Z,102025.72
2023-02-27T20:39:05.831Z,102026.38
2023-02-27T20:41:36.664Z,102023.31
2023-02-27T20:44:05.732Z,102017.16
2023-02-27T20:46:35.740Z,102020.34
2023-02-27T20:49:06.150Z,102025.72
2023-02-27T20:51:38.045Z,102018.44
2023-02-27T20:54:09.563Z,102017.53
2023-02-27T20:56:41.278Z,102014.88
2023-02-27T20:59:13.256Z,102025.72
2023-02-27T21:01:43.139Z,102028.91
2023-02-27T21:04:11.007Z,102026.34
2023-02-27T21:06:38.847Z,102025.31
2023-02-27T21:09:06.868Z,102030.94
2023-02-27T21:11:34.622Z,102029.69
2023-02-27T21:14:09.087Z,102029.53
2023-02-27T21:16:38.477Z,102038.75
2023-02-27T21:19:07.351Z,102034.41
2023-02-27T21:21:37.994Z,102034.78
2023-02-27T21:24:06.796Z,102041.41
2023-02-27T21:26:38.641Z,102033.00
2023-02-27T21:29:10.620Z,102043.59
2023-02-27T21:31:41.330Z,102035.78
2023-02-27T21:34:14.344Z,102045.09
2023-02-27T21:36:44.250Z,102052.63
2023-02-27T21:39:15.346Z,102040.63
2023-02-27T21:41:44.534Z,102040.38
2023-02-27T21:44:16.789Z,102044.03
2023-02-27T21:46:45.846Z,102039.59
2023-02-27T21:49:18.388Z,102044.41
2023-02-27T21:51:47.340Z,102041.59
2023-02-27T21:54:17.463Z,102040.59
2023-02-27T21:56:47.677Z,102044.25
2023-02-27T21:59:21.502Z,102055.09
2023-02-27T22:01:49.610Z,102045.84
2023-02-27T22:04:20.187Z,102049.97
2023-02-27T22:06:52.158Z,102048.03
2023-02-27T22:09:21.178Z,102049.56
2023-02-27T22:11:49.391Z,102057.06
2023-02-27T22:14:18.850Z,102051.69
2023-02-27T22:16:46.998Z,102058.59
2023-02-27T22:19:21.922Z,102062.69
2023-02-27T22:21:50.080Z,102058.31
2023-02-27T22:24:18.316Z,102060.13
2023-02-27T22:26:47.703Z,102059.84
2023-02-27T22:29:16.952Z,102060.59
2023-02-27T22:31:46.777Z,102066.75
2023-02-27T22:34:18.388Z,102062.25
2023-02-27T22:36:52.737Z,102063.41
2023-02-27T22:39:21.374Z,102075.19
2023-02-27T22:41:49.614Z,102067.59
2023-02-27T22:44:18.782Z,102072.03
2023-02-27T22:46:49.404Z,102077.13
2023-02-27T22:49:20.098Z,102070.22
2023-02-27T22:51:50.833Z,102074.78
2023-02-27T22:54:23.879Z,102074.22
2023-02-27T22:56:54.332Z,102076.28
2023-02-27T22:59:24.788Z,102073.72
2023-02-27T23:01:54.143Z,102083.66
2023-02-27T23:04:23.179Z,102081.69
2023-02-27T23:06:52.812Z,102083.19
2023-02-27T23:09:27.200Z,102083.81
2023-02-27T23:11:55.810Z,102084.72
2023-02-27T23:14:23.672Z,102082.59
2023-02-27T23:16:51.538Z,102091.25
2023-02-27T23:19:26.848Z,102083.75
2023-02-27T23:21:54.666Z,102097.53
2023-02-27T23:24:22.372Z,102085.25
2023-02-27T23:26:52.882Z,102086.78
2023-02-27T23:29:21.026Z,102086.50
2023-02-27T23:31:49.073Z,102089.19
2023-02-27T23:34:16.955Z,102081.53
2023-02-27T23:36:46.138Z,102082.94
2023-02-27T23:39:13.930Z,102086.50
2023-02-27T23:41:41.912Z,102087.00
2023-02-27T23:44:28.252Z,102085.69
2023-02-27T23:46:55.941Z,102087.06
2023-02-27T23:49:23.708Z,102091.13
2023-02-27T23:51:53.086Z,102087.19
2023-02-27T23:54:20.926Z,102094.56
2023-02-27T23:56:49.224Z,102093.25
2023-02-27T23:59:17.101Z,102096.56
